Time;durP1;ratioP1;P1;durP2;ratioP2;P2;SDS_P1;SDS_P2;PMS_P1;PMS_P2;Temp;Humidity;BMP_temperature;BMP_pressure;BME280_temperature;BME280_humidity;BME280_pressure;Samples;Min_cycle;Max_cycle;Signal;HPM_P1;HPM_P2
2022/12/04 00:00:11;;;;;;;;;;;-0.90;99.90;;;;;;5057599;28;19913;-81
2022/12/04 00:02:37;;;;;;;;;;;-0.90;99.90;;;;;;5041234;28;19989;-82
2022/12/04 00:05:03;;;;;;;;;;;-0.90;99.90;;;;;;5057148;28;19913;-81
2022/12/04 00:07:29;;;;;;;;;;;-0.90;99.90;;;;;;5039109;28;20008;-81
2022/12/04 00:09:54;;;;;;;;;;;-0.90;99.90;;;;;;5023034;28;19916;-80
2022/12/04 00:12:20;;;;;;;;;;;-0.90;99.90;;;;;;5045538;28;19956;-82
2022/12/04 00:14:46;;;;;;;;;;;-0.90;99.90;;;;;;5066616;28;19913;-78
2022/12/04 00:17:11;;;;;;;;;;;-0.90;99.90;;;;;;5058479;28;19913;-81
2022/12/04 00:19:37;;;;;;;;;;;-0.90;99.90;;;;;;5055900;28;19913;-81
2022/12/04 00:22:03;;;;;;;;;;;-0.90;99.90;;;;;;5038360;28;20001;-80
2022/12/04 00:24:28;;;;;;;;;;;-0.90;99.90;;;;;;5037981;28;20017;-81
2022/12/04 00:26:54;;;;;;;;;;;-0.90;99.90;;;;;;5055800;28;20246;-81
2022/12/04 00:29:19;;;;;;;;;;;-0.90;99.90;;;;;;5055722;28;20270;-80
2022/12/04 00:31:45;;;;;;;;;;;-0.90;99.90;;;;;;5055882;28;20304;-80
2022/12/04 00:34:10;;;;;;;;;;;-0.90;99.90;;;;;;5057268;28;20280;-81
2022/12/04 00:36:36;;;;;;;;;;;-0.90;99.90;;;;;;5057289;28;20011;-81
2022/12/04 00:39:02;;;;;;;;;;;-0.90;99.90;;;;;;5038361;28;19915;-81
2022/12/04 00:41:29;;;;;;;;;;;-1.00;99.90;;;;;;5037932;28;19915;-80
2022/12/04 00:43:55;;;;;;;;;;;-1.00;99.90;;;;;;5055295;28;19979;-80
2022/12/04 00:46:21;;;;;;;;;;;-0.90;99.90;;;;;;5054833;28;20351;-80
2022/12/04 00:48:46;;;;;;;;;;;-1.00;99.90;;;;;;5035308;28;19909;-81
2022/12/04 00:51:14;;;;;;;;;;;-1.00;99.90;;;;;;5035701;28;19975;-80
2022/12/04 00:53:39;;;;;;;;;;;-1.10;99.90;;;;;;5035974;28;20362;-80
2022/12/04 00:56:06;;;;;;;;;;;-1.10;99.90;;;;;;5044196;28;19967;-81
2022/12/04 00:58:31;;;;;;;;;;;-1.20;99.90;;;;;;5037259;28;19982;-81
2022/12/04 01:01:04;;;;;;;;;;;-1.10;99.90;;;;;;5055190;28;20361;-81
2022/12/04 01:03:30;;;;;;;;;;;-1.10;99.90;;;;;;5054916;28;19909;-80
2022/12/04 01:05:55;;;;;;;;;;;-1.10;99.90;;;;;;5055311;28;19920;-80
2022/12/04 01:08:21;;;;;;;;;;;-1.10;99.90;;;;;;5053920;28;19916;-79
2022/12/04 01:10:46;;;;;;;;;;;-1.10;99.90;;;;;;5055189;28;19917;-79
2022/12/04 01:13:12;;;;;;;;;;;-1.10;99.90;;;;;;5055145;28;20257;-80
2022/12/04 01:15:42;;;;;;;;;;;-1.00;99.90;;;;;;5054674;28;20262;-81
2022/12/04 01:18:11;;;;;;;;;;;-1.00;99.90;;;;;;5054849;28;19909;-81
2022/12/04 01:20:37;;;;;;;;;;;-1.00;99.90;;;;;;5037037;28;20457;-81
2022/12/04 01:23:03;;;;;;;;;;;-1.00;99.90;;;;;;5055118;28;19955;-81
2022/12/04 01:25:28;;;;;;;;;;;-1.00;99.90;;;;;;5055312;28;19940;-81
2022/12/04 01:27:54;;;;;;;;;;;-1.10;99.90;;;;;;5054773;28;19909;-82
2022/12/04 01:30:20;;;;;;;;;;;-1.20;99.90;;;;;;5035840;28;20284;-81
2022/12/04 01:32:45;;;;;;;;;;;-1.20;99.90;;;;;;5054390;28;19909;-81
2022/12/04 01:35:11;;;;;;;;;;;-1.30;99.90;;;;;;5054458;28;20289;-81
2022/12/04 01:37:36;;;;;;;;;;;-1.30;99.90;;;;;;5036826;28;19991;-81
2022/12/04 01:40:02;;;;;;;;;;;-1.30;99.90;;;;;;5054633;28;19920;-80
2022/12/04 01:42:28;;;;;;;;;;;-1.30;99.90;;;;;;5054180;28;19935;-81
2022/12/04 01:45:12;;;;;;;;;;;-1.30;99.90;;;;;;5036547;28;19909;-81
2022/12/04 01:47:38;;;;;;;;;;;-1.30;99.90;;;;;;5053973;28;19916;-81
2022/12/04 01:50:04;;;;;;;;;;;-1.30;99.90;;;;;;5054206;28;19977;-81
2022/12/04 01:52:29;;;;;;;;;;;-1.30;99.90;;;;;;5054147;28;19920;-81
2022/12/04 01:54:57;;;;;;;;;;;-1.30;99.90;;;;;;5054124;28;19991;-81
2022/12/04 01:57:25;;;;;;;;;;;-1.30;99.90;;;;;;5054916;28;19971;-80
2022/12/04 01:59:52;;;;;;;;;;;-1.20;99.90;;;;;;5046653;28;19913;-81
2022/12/04 02:02:21;;;;;;;;;;;-1.30;99.90;;;;;;5055941;28;19908;-81
2022/12/04 02:04:49;;;;;;;;;;;-1.30;99.90;;;;;;5059464;28;20396;-79
2022/12/04 02:07:15;;;;;;;;;;;-1.30;99.90;;;;;;5043870;28;20365;-81
2022/12/04 02:09:41;;;;;;;;;;;-1.30;99.90;;;;;;5065121;28;19923;-81
2022/12/04 02:12:27;;;;;;;;;;;-1.30;99.90;;;;;;5065101;28;19908;-81
2022/12/04 02:14:59;;;;;;;;;;;-1.30;99.90;;;;;;5062197;28;19909;-81
2022/12/04 02:17:32;;;;;;;;;;;-1.30;99.90;;;;;;5058757;28;20294;-80
2022/12/04 02:20:16;;;;;;;;;;;-1.40;99.90;;;;;;5063833;28;19934;-81
2022/12/04 02:22:44;;;;;;;;;;;-1.40;99.90;;;;;;5035166;28;20333;-80
2022/12/04 02:25:16;;;;;;;;;;;-1.40;99.90;;;;;;5038340;28;19917;-81
2022/12/04 02:27:41;;;;;;;;;;;-1.40;99.90;;;;;;5054680;28;19909;-81
2022/12/04 02:30:08;;;;;;;;;;;-1.40;99.90;;;;;;5054775;28;19931;-81
2022/12/04 02:32:41;;;;;;;;;;;-1.40;99.90;;;;;;5036571;28;19913;-80
2022/12/04 02:35:13;;;;;;;;;;;-1.40;99.90;;;;;;5054852;28;20375;-80
2022/12/04 02:37:46;;;;;;;;;;;-1.30;99.90;;;;;;5054769;22;19900;-70
2022/12/04 02:40:18;;;;;;;;;;;-1.30;99.90;;;;;;5114008;28;19919;-69
2022/12/04 02:42:46;;;;;;;;;;;-1.30;99.90;;;;;;5115071;28;19915;-69
2022/12/04 02:45:19;;;;;;;;;;;-1.30;99.90;;;;;;5118051;28;19908;-69
2022/12/04 02:47:45;;;;;;;;;;;-1.30;99.90;;;;;;5117904;28;19911;-69
2022/12/04 02:50:16;;;;;;;;;;;-1.30;99.90;;;;;;5118263;28;19919;-69
2022/12/04 02:52:45;;;;;;;;;;;-1.30;99.90;;;;;;5117949;28;19931;-69
2022/12/04 02:55:40;;;;;;;;;;;-1.30;99.90;;;;;;5117833;28;19908;-69
2022/12/04 02:58:09;;;;;;;;;;;-1.30;99.90;;;;;;5100298;28;20355;-69
2022/12/04 03:00:35;;;;;;;;;;;-1.30;99.90;;;;;;5117806;28;19915;-69
2022/12/04 03:03:04;;;;;;;;;;;-1.30;99.90;;;;;;5118066;28;19912;-69
2022/12/04 03:05:42;;;;;;;;;;;-1.20;99.90;;;;;;5117661;28;20036;-69
2022/12/04 03:08:10;;;;;;;;;;;-1.20;99.90;;;;;;5117548;28;19914;-69
2022/12/04 03:10:39;;;;;;;;;;;-1.20;99.90;;;;;;5117706;28;19915;-69
2022/12/04 03:13:23;;;;;;;;;;;-1.20;99.90;;;;;;5117900;28;20010;-69
2022/12/04 03:15:51;;;;;;;;;;;-1.20;99.90;;;;;;5117359;28;19915;-69
2022/12/04 03:18:19;;;;;;;;;;;-1.20;99.90;;;;;;5117789;28;19915;-69
2022/12/04 03:20:46;;;;;;;;;;;-1.20;99.90;;;;;;5117439;28;19908;-70
2022/12/04 03:23:15;;;;;;;;;;;-1.20;99.90;;;;;;5117687;28;19908;-69
2022/12/04 03:26:00;;;;;;;;;;;-1.20;99.90;;;;;;5117680;28;19907;-69
2022/12/04 03:28:36;;;;;;;;;;;-1.20;99.90;;;;;;5116539;28;19907;-69
2022/12/04 03:31:04;;;;;;;;;;;-1.20;99.90;;;;;;5117477;28;19914;-69
2022/12/04 03:33:45;;;;;;;;;;;-1.20;99.90;;;;;;5098959;28;19908;-69
2022/12/04 03:36:16;;;;;;;;;;;-1.20;99.90;;;;;;5116922;28;19972;-69
2022/12/04 03:38:45;;;;;;;;;;;-1.30;99.90;;;;;;5098660;28;19916;-69
2022/12/04 03:41:24;;;;;;;;;;;-1.30;99.90;;;;;;5098771;28;19908;-69
2022/12/04 03:43:54;;;;;;;;;;;-1.30;99.90;;;;;;5116911;28;19916;-69
2022/12/04 03:46:24;;;;;;;;;;;-1.40;99.90;;;;;;5098814;28;19908;-69
2022/12/04 03:48:53;;;;;;;;;;;-1.40;99.90;;;;;;5116915;28;19908;-69
2022/12/04 03:51:25;;;;;;;;;;;-1.40;99.90;;;;;;5117092;28;19950;-69
2022/12/04 03:54:02;;;;;;;;;;;-1.40;99.90;;;;;;5116402;28;19950;-69
2022/12/04 03:56:31;;;;;;;;;;;-1.40;99.90;;;;;;5116820;28;19936;-69
2022/12/04 03:58:59;;;;;;;;;;;-1.30;99.90;;;;;;5116678;28;19908;-69
2022/12/04 04:01:28;;;;;;;;;;;-1.30;99.90;;;;;;5116616;28;19990;-69
2022/12/04 04:03:56;;;;;;;;;;;-1.30;99.90;;;;;;5116510;28;19908;-69
2022/12/04 04:06:31;;;;;;;;;;;-1.30;99.90;;;;;;5116397;28;19908;-69
2022/12/04 04:08:59;;;;;;;;;;;-1.30;99.90;;;;;;5098157;28;19911;-69
2022/12/04 04:11:33;;;;;;;;;;;-1.30;99.90;;;;;;5098170;28;19908;-69
2022/12/04 04:25:11;;;;;;;;;;;-1.40;99.90;;;;;;5116631;28;19922;-69
2022/12/04 04:27:36;;;;;;;;;;;-1.40;99.90;;;;;;5116125;28;19957;-69
2022/12/04 04:30:02;;;;;;;;;;;-1.50;99.90;;;;;;5116386;28;19916;-69
2022/12/04 04:32:40;;;;;;;;;;;-1.50;99.90;;;;;;5097731;28;19908;-69
2022/12/04 04:35:16;;;;;;;;;;;-1.50;99.90;;;;;;5115939;28;20386;-69
2022/12/04 04:37:57;;;;;;;;;;;-1.50;99.90;;;;;;5116247;28;19922;-69
2022/12/04 04:40:23;;;;;;;;;;;-1.50;99.90;;;;;;5115916;28;20263;-69
2022/12/04 04:42:58;;;;;;;;;;;-1.50;99.90;;;;;;5115860;28;19933;-69
2022/12/04 04:45:56;;;;;;;;;;;-1.50;99.90;;;;;;5097428;28;20366;-69
2022/12/04 04:48:28;;;;;;;;;;;-1.50;99.90;;;;;;5070302;28;19908;-69
2022/12/04 04:50:54;;;;;;;;;;;-1.50;99.90;;;;;;5116234;28;19942;-69
2022/12/04 04:53:28;;;;;;;;;;;-1.60;99.90;;;;;;5116155;28;19919;-69
2022/12/04 04:55:54;;;;;;;;;;;-1.60;99.90;;;;;;5115575;28;19912;-70
2022/12/04 04:58:20;;;;;;;;;;;-1.60;99.90;;;;;;5115376;28;19993;-69
2022/12/04 05:01:06;;;;;;;;;;;-1.60;99.90;;;;;;5097234;28;19915;-69
2022/12/04 05:03:32;;;;;;;;;;;-1.60;99.90;;;;;;5115608;28;19930;-69
2022/12/04 05:05:58;;;;;;;;;;;-1.60;99.90;;;;;;5114463;28;20366;-69
2022/12/04 05:08:23;;;;;;;;;;;-1.60;99.90;;;;;;5115410;28;20275;-69
2022/12/04 05:10:49;;;;;;;;;;;-1.50;99.90;;;;;;5115218;28;19927;-69
2022/12/04 05:13:15;;;;;;;;;;;-1.50;99.90;;;;;;5115489;28;19908;-69
2022/12/04 05:15:41;;;;;;;;;;;-1.50;99.90;;;;;;5115381;28;19964;-69
2022/12/04 05:18:07;;;;;;;;;;;-1.50;99.90;;;;;;5115230;28;19916;-69
2022/12/04 05:20:32;;;;;;;;;;;-1.60;99.90;;;;;;5115592;28;20046;-69
2022/12/04 05:22:58;;;;;;;;;;;-1.60;99.90;;;;;;5114100;28;19916;-69
2022/12/04 05:25:24;;;;;;;;;;;-1.60;99.90;;;;;;5096520;28;19908;-69
2022/12/04 05:27:49;;;;;;;;;;;-1.60;99.90;;;;;;5095690;28;19923;-69
2022/12/04 05:30:15;;;;;;;;;;;-1.60;99.90;;;;;;5114426;28;19950;-69
2022/12/04 05:32:41;;;;;;;;;;;-1.60;99.90;;;;;;5114027;28;19934;-69
2022/12/04 05:35:07;;;;;;;;;;;-1.60;99.90;;;;;;5112258;28;19919;-69
2022/12/04 05:37:35;;;;;;;;;;;-1.60;99.90;;;;;;5096178;28;19961;-69
2022/12/04 05:40:01;;;;;;;;;;;-1.60;99.90;;;;;;5096260;28;19920;-69
2022/12/04 05:42:26;;;;;;;;;;;-1.60;99.90;;;;;;5114603;28;19912;-69
2022/12/04 05:44:52;;;;;;;;;;;-1.60;99.90;;;;;;5114380;28;19994;-69
2022/12/04 05:47:17;;;;;;;;;;;-1.70;99.90;;;;;;5114325;28;20030;-69
2022/12/04 05:49:43;;;;;;;;;;;-1.70;99.90;;;;;;5114253;28;19939;-69
2022/12/04 05:55:12;;;;;;;;;;;-1.70;99.90;;;;;;5112265;28;20295;-69
2022/12/04 05:57:38;;;;;;;;;;;-1.70;99.90;;;;;;5114144;28;19912;-69
2022/12/04 06:00:04;;;;;;;;;;;-1.60;99.90;;;;;;5114188;28;20002;-69
2022/12/04 06:02:29;;;;;;;;;;;-1.70;99.90;;;;;;5095106;28;19916;-69
2022/12/04 06:04:55;;;;;;;;;;;-1.60;99.90;;;;;;5113783;28;20337;-69
2022/12/04 06:07:20;;;;;;;;;;;-1.60;99.90;;;;;;5113997;28;19911;-69
2022/12/04 06:09:46;;;;;;;;;;;-1.60;99.90;;;;;;5113830;28;19912;-69
2022/12/04 06:12:11;;;;;;;;;;;-1.60;99.90;;;;;;5112850;28;20283;-69
2022/12/04 06:14:37;;;;;;;;;;;-1.60;99.90;;;;;;5114066;28;19918;-69
2022/12/04 06:17:02;;;;;;;;;;;-1.50;99.90;;;;;;5113617;28;19935;-69
2022/12/04 06:19:28;;;;;;;;;;;-1.50;99.90;;;;;;5113973;28;19966;-69
2022/12/04 06:21:54;;;;;;;;;;;-1.50;99.90;;;;;;5078776;28;19965;-70
2022/12/04 06:24:21;;;;;;;;;;;-1.50;99.90;;;;;;5094229;28;20006;-69
2022/12/04 06:26:47;;;;;;;;;;;-1.50;99.90;;;;;;5095528;28;19914;-70
2022/12/04 06:29:12;;;;;;;;;;;-1.60;99.90;;;;;;5095621;28;20364;-70
2022/12/04 06:31:38;;;;;;;;;;;-1.60;99.90;;;;;;5113922;28;19918;-69
2022/12/04 06:37:08;;;;;;;;;;;-1.60;99.90;;;;;;5391375;22;21918;-79
2022/12/04 06:39:33;;;;;;;;;;;-1.60;99.90;;;;;;5093465;28;19962;-79
2022/12/04 06:41:59;;;;;;;;;;;-1.60;99.90;;;;;;5062619;28;19913;-79
2022/12/04 06:44:24;;;;;;;;;;;-1.60;99.90;;;;;;5073866;28;20007;-80
2022/12/04 06:46:50;;;;;;;;;;;-1.60;99.90;;;;;;5074440;28;19909;-78
2022/12/04 06:49:16;;;;;;;;;;;-1.70;99.90;;;;;;5075018;28;19920;-79
2022/12/04 06:51:41;;;;;;;;;;;-1.70;99.90;;;;;;5072005;28;19915;-79
2022/12/04 06:54:08;;;;;;;;;;;-1.70;99.90;;;;;;5074473;28;19948;-79
2022/12/04 06:56:34;;;;;;;;;;;-1.70;99.90;;;;;;5074636;28;20299;-79
2022/12/04 06:59:00;;;;;;;;;;;-1.70;99.90;;;;;;5074561;28;19909;-79
2022/12/04 07:01:27;;;;;;;;;;;-1.70;99.90;;;;;;5075699;28;19920;-79
2022/12/04 07:03:52;;;;;;;;;;;-1.70;99.90;;;;;;5057580;28;19916;-79
2022/12/04 07:06:22;;;;;;;;;;;-1.70;99.90;;;;;;5075051;28;19921;-79
2022/12/04 07:08:49;;;;;;;;;;;-1.60;99.90;;;;;;5055668;28;19916;-79
2022/12/04 07:11:15;;;;;;;;;;;-1.60;99.90;;;;;;5075481;28;19913;-79
2022/12/04 07:13:44;;;;;;;;;;;-1.60;99.90;;;;;;5075322;28;19908;-79
2022/12/04 07:16:11;;;;;;;;;;;-1.60;99.90;;;;;;5057278;28;20466;-79
2022/12/04 07:18:37;;;;;;;;;;;-1.60;99.90;;;;;;5077242;28;19995;-78
2022/12/04 07:21:03;;;;;;;;;;;-1.60;99.90;;;;;;5058908;28;19932;-79
2022/12/04 07:23:29;;;;;;;;;;;-1.60;99.90;;;;;;5058712;28;19999;-78
2022/12/04 07:25:54;;;;;;;;;;;-1.60;99.90;;;;;;5060461;28;20402;-79
2022/12/04 07:28:20;;;;;;;;;;;-1.60;99.90;;;;;;5076775;28;20299;-79
2022/12/04 07:30:46;;;;;;;;;;;-1.50;99.90;;;;;;5045757;28;19913;-79
2022/12/04 07:33:12;;;;;;;;;;;-1.50;99.90;;;;;;5077472;28;19923;-79
2022/12/04 07:35:38;;;;;;;;;;;-1.40;99.90;;;;;;5077754;28;20011;-79
2022/12/04 07:38:03;;;;;;;;;;;-1.40;99.90;;;;;;5062204;28;19951;-79
2022/12/04 07:40:29;;;;;;;;;;;-1.40;99.90;;;;;;5062315;28;19919;-78
2022/12/04 07:42:55;;;;;;;;;;;-1.30;99.90;;;;;;5061072;28;19916;-79
2022/12/04 07:45:20;;;;;;;;;;;-1.20;99.90;;;;;;5063751;28;19955;-79
2022/12/04 07:47:46;;;;;;;;;;;-1.20;99.90;;;;;;5060871;28;19970;-79
2022/12/04 07:50:11;;;;;;;;;;;-1.10;99.90;;;;;;5080916;28;19919;-79
2022/12/04 07:52:37;;;;;;;;;;;-1.10;99.90;;;;;;5083421;28;19912;-78
2022/12/04 07:55:04;;;;;;;;;;;-1.00;99.90;;;;;;5078742;28;19979;-78
2022/12/04 07:57:30;;;;;;;;;;;-1.00;99.90;;;;;;5083080;28;20384;-79
2022/12/04 07:59:55;;;;;;;;;;;-1.00;99.90;;;;;;5082933;28;19912;-79
2022/12/04 08:02:21;;;;;;;;;;;-1.00;99.90;;;;;;5046418;28;19935;-79
2022/12/04 08:04:46;;;;;;;;;;;-0.90;99.90;;;;;;5062973;28;20539;-79
2022/12/04 08:07:12;;;;;;;;;;;-0.90;99.90;;;;;;5064362;28;19935;-79
2022/12/04 08:09:38;;;;;;;;;;;-0.80;99.90;;;;;;5062293;28;19912;-79
2022/12/04 08:12:03;;;;;;;;;;;-0.70;99.90;;;;;;5064695;28;19959;-79
2022/12/04 08:14:29;;;;;;;;;;;-0.70;99.90;;;;;;5082751;28;19909;-79
2022/12/04 08:16:55;;;;;;;;;;;-0.60;99.90;;;;;;5079557;28;19917;-80
2022/12/04 08:19:20;;;;;;;;;;;-0.50;99.90;;;;;;5078479;28;20265;-80
2022/12/04 08:21:46;;;;;;;;;;;-0.50;99.90;;;;;;5079766;28;20323;-78
2022/12/04 08:24:12;;;;;;;;;;;-0.40;99.90;;;;;;5066812;28;19913;-79
2022/12/04 08:26:37;;;;;;;;;;;-0.30;99.90;;;;;;5065739;28;19912;-79
2022/12/04 08:29:03;;;;;;;;;;;-0.20;99.90;;;;;;5065687;28;19913;-79
2022/12/04 08:31:29;;;;;;;;;;;-0.20;99.90;;;;;;5084223;28;19939;-79
2022/12/04 08:33:56;;;;;;;;;;;-0.10;99.90;;;;;;5064950;28;19908;-79
2022/12/04 08:36:22;;;;;;;;;;;0.00;99.90;;;;;;5081536;28;20042;-79
2022/12/04 08:38:47;;;;;;;;;;;0.00;99.90;;;;;;5075899;28;19944;-79
2022/12/04 08:41:14;;;;;;;;;;;0.10;99.90;;;;;;5064581;28;20008;-79
2022/12/04 08:43:40;;;;;;;;;;;0.20;99.90;;;;;;5085485;28;19908;-79
2022/12/04 08:46:06;;;;;;;;;;;0.20;99.90;;;;;;5080087;28;19908;-79
2022/12/04 08:48:32;;;;;;;;;;;0.30;99.90;;;;;;5080391;28;19915;-80
2022/12/04 08:50:58;;;;;;;;;;;0.30;99.90;;;;;;5063530;28;20356;-79
2022/12/04 08:53:24;;;;;;;;;;;0.40;99.90;;;;;;5068437;28;20030;-79
2022/12/04 08:55:50;;;;;;;;;;;0.50;99.90;;;;;;5046231;28;20011;-79
2022/12/04 08:58:15;;;;;;;;;;;0.50;99.90;;;;;;5076848;28;20290;-79
2022/12/04 09:00:41;;;;;;;;;;;0.60;99.90;;;;;;5076546;28;20358;-79
2022/12/04 09:03:09;;;;;;;;;;;0.70;99.90;;;;;;5058586;28;19916;-79
2022/12/04 09:05:35;;;;;;;;;;;0.70;99.90;;;;;;5076139;28;19939;-79
2022/12/04 09:08:00;;;;;;;;;;;0.80;99.90;;;;;;5077245;28;19912;-79
2022/12/04 09:10:26;;;;;;;;;;;0.90;99.90;;;;;;5063938;28;19917;-79
2022/12/04 09:12:52;;;;;;;;;;;1.00;99.90;;;;;;5038818;28;19913;-79
2022/12/04 09:15:18;;;;;;;;;;;1.10;99.90;;;;;;5038814;28;19921;-79
2022/12/04 09:17:43;;;;;;;;;;;1.20;99.90;;;;;;5038827;28;19913;-79
2022/12/04 09:20:09;;;;;;;;;;;1.30;99.90;;;;;;5056361;28;19916;-79
2022/12/04 09:22:37;;;;;;;;;;;1.30;99.90;;;;;;5068297;28;20264;-79
2022/12/04 09:25:04;;;;;;;;;;;1.40;99.90;;;;;;5057546;28;19935;-79
2022/12/04 09:27:34;;;;;;;;;;;1.50;99.90;;;;;;5072000;28;20353;-79
2022/12/04 09:30:00;;;;;;;;;;;1.60;99.90;;;;;;5076809;28;19909;-79
2022/12/04 09:32:26;;;;;;;;;;;1.70;99.90;;;;;;5058858;28;20334;-79
2022/12/04 09:34:52;;;;;;;;;;;1.70;99.90;;;;;;5057475;28;19934;-79
2022/12/04 09:37:17;;;;;;;;;;;1.80;99.90;;;;;;5075632;28;19969;-79
2022/12/04 09:39:45;;;;;;;;;;;1.90;99.90;;;;;;5058343;28;19913;-79
2022/12/04 09:42:11;;;;;;;;;;;2.00;99.90;;;;;;5074353;28;20009;-79
2022/12/04 09:44:44;;;;;;;;;;;2.10;99.90;;;;;;5076432;28;20364;-79
2022/12/04 09:47:16;;;;;;;;;;;2.20;99.90;;;;;;5074428;28;20313;-80
2022/12/04 09:49:50;;;;;;;;;;;2.30;99.90;;;;;;5074915;28;20376;-79
2022/12/04 09:52:35;;;;;;;;;;;2.40;99.90;;;;;;5072938;28;19908;-79
2022/12/04 09:55:02;;;;;;;;;;;2.50;99.90;;;;;;5072581;28;20003;-79
2022/12/04 09:57:39;;;;;;;;;;;2.60;99.90;;;;;;5055293;28;19993;-79
2022/12/04 10:00:06;;;;;;;;;;;2.70;99.90;;;;;;5068657;28;19913;-79
2022/12/04 10:02:32;;;;;;;;;;;2.70;99.90;;;;;;5050526;28;20284;-79
2022/12/04 10:04:59;;;;;;;;;;;2.70;99.90;;;;;;5073536;28;19998;-79
2022/12/04 10:07:31;;;;;;;;;;;2.80;99.90;;;;;;5055310;28;19973;-79
2022/12/04 10:10:01;;;;;;;;;;;2.80;99.90;;;;;;5073043;28;19948;-79
2022/12/04 10:12:48;;;;;;;;;;;2.90;99.90;;;;;;5076232;28;20431;-79
2022/12/04 10:15:39;;;;;;;;;;;3.00;99.90;;;;;;5069081;28;19912;-79
2022/12/04 10:18:18;;;;;;;;;;;3.10;99.90;;;;;;5056544;28;19916;-80
2022/12/04 10:20:44;;;;;;;;;;;3.20;99.90;;;;;;5038571;28;19909;-80
2022/12/04 10:23:25;;;;;;;;;;;3.30;99.90;;;;;;5038614;28;19909;-79
2022/12/04 10:25:52;;;;;;;;;;;3.40;99.90;;;;;;5064120;28;19912;-80
2022/12/04 10:28:37;;;;;;;;;;;3.50;99.90;;;;;;5076850;28;19908;-80
2022/12/04 10:31:04;;;;;;;;;;;3.60;99.90;;;;;;5077325;28;20291;-79
2022/12/04 10:33:38;;;;;;;;;;;3.70;99.90;;;;;;5057892;28;19913;-80
2022/12/04 10:36:04;;;;;;;;;;;3.80;99.90;;;;;;5057780;28;19913;-80
2022/12/04 10:38:32;;;;;;;;;;;4.00;99.90;;;;;;5056559;28;19939;-81
2022/12/04 10:41:09;;;;;;;;;;;4.10;99.90;;;;;;5073595;28;19913;-80
2022/12/04 10:43:39;;;;;;;;;;;4.20;99.90;;;;;;5073901;28;20008;-80
2022/12/04 10:46:04;;;;;;;;;;;4.40;99.90;;;;;;5058630;28;19908;-81
2022/12/04 10:48:35;;;;;;;;;;;4.50;99.90;;;;;;5076534;28;19919;-80
2022/12/04 10:51:01;;;;;;;;;;;4.70;99.90;;;;;;5076494;28;20038;-81
2022/12/04 10:53:34;;;;;;;;;;;4.80;99.90;;;;;;5076627;28;19958;-82
2022/12/04 10:56:09;;;;;;;;;;;4.90;99.90;;;;;;5073004;28;19996;-82
2022/12/04 10:58:35;;;;;;;;;;;5.10;99.90;;;;;;5071746;28;20288;-81
2022/12/04 11:01:05;;;;;;;;;;;5.30;99.90;;;;;;5055128;28;19908;-81
2022/12/04 11:03:31;;;;;;;;;;;5.30;99.90;;;;;;5073431;28;19982;-81
2022/12/04 11:06:07;;;;;;;;;;;5.40;99.90;;;;;;5076053;28;20426;-81
2022/12/04 11:08:38;;;;;;;;;;;5.50;99.90;;;;;;5076583;28;20062;-81
2022/12/04 11:11:10;;;;;;;;;;;5.50;99.90;;;;;;5067190;28;19913;-82
2022/12/04 11:13:36;;;;;;;;;;;5.50;99.90;;;;;;5075494;28;19916;-82
2022/12/04 11:16:02;;;;;;;;;;;5.60;99.90;;;;;;5078023;28;19913;-81
2022/12/04 11:18:27;;;;;;;;;;;5.60;99.90;;;;;;5077349;28;19924;-81
2022/12/04 11:20:56;;;;;;;;;;;5.60;99.90;;;;;;5072983;28;19909;-81
2022/12/04 11:23:22;;;;;;;;;;;5.60;99.90;;;;;;5074759;28;20398;-81
2022/12/04 11:25:52;;;;;;;;;;;5.70;99.90;;;;;;5078087;28;20391;-82
2022/12/04 11:28:20;;;;;;;;;;;5.70;99.90;;;;;;5076277;28;20498;-81
2022/12/04 11:30:48;;;;;;;;;;;5.60;99.90;;;;;;5059721;28;19913;-81
2022/12/04 11:33:19;;;;;;;;;;;5.60;99.90;;;;;;5068351;28;19947;-81
2022/12/04 11:35:53;;;;;;;;;;;5.70;99.90;;;;;;5075928;28;19923;-81
2022/12/04 11:38:23;;;;;;;;;;;5.60;99.90;;;;;;5074095;28;19916;-81
2022/12/04 11:40:53;;;;;;;;;;;5.60;99.90;;;;;;5059180;28;19962;-82
2022/12/04 11:43:19;;;;;;;;;;;5.60;99.90;;;;;;5073891;28;19919;-82
2022/12/04 11:45:55;;;;;;;;;;;5.60;99.90;;;;;;5074415;28;19999;-81
2022/12/04 11:48:21;;;;;;;;;;;5.60;99.90;;;;;;5075604;28;19990;-81
2022/12/04 11:51:13;;;;;;;;;;;5.60;99.90;;;;;;5077580;28;19995;-81
2022/12/04 11:53:42;;;;;;;;;;;5.70;99.90;;;;;;5072036;28;19915;-81
2022/12/04 11:56:17;;;;;;;;;;;5.60;99.90;;;;;;5058016;28;19912;-81
2022/12/04 11:58:45;;;;;;;;;;;5.60;99.90;;;;;;5074027;28;20050;-82
2022/12/04 12:01:17;;;;;;;;;;;5.60;99.90;;;;;;5071683;28;19936;-81
2022/12/04 12:03:51;;;;;;;;;;;5.60;99.90;;;;;;5076543;28;19909;-81
2022/12/04 12:06:26;;;;;;;;;;;5.60;99.90;;;;;;5075683;28;19940;-82
2022/12/04 12:08:58;;;;;;;;;;;5.60;99.90;;;;;;5070846;28;19917;-82
2022/12/04 12:11:27;;;;;;;;;;;5.60;99.90;;;;;;5069630;28;19941;-82
2022/12/04 12:13:55;;;;;;;;;;;5.70;99.90;;;;;;5074909;28;19912;-82
2022/12/04 12:16:39;;;;;;;;;;;5.70;99.90;;;;;;5050840;28;19928;-81
2022/12/04 12:19:20;;;;;;;;;;;5.70;99.90;;;;;;5074544;28;20049;-81
2022/12/04 12:21:53;;;;;;;;;;;5.80;99.90;;;;;;5057872;28;19909;-82
2022/12/04 12:24:37;;;;;;;;;;;5.80;99.90;;;;;;5052717;28;19912;-82
2022/12/04 12:27:06;;;;;;;;;;;5.90;99.90;;;;;;5072571;28;19912;-81
2022/12/04 12:29:31;;;;;;;;;;;6.00;99.90;;;;;;5067487;28;19912;-80
2022/12/04 12:32:03;;;;;;;;;;;6.00;99.90;;;;;;5052489;28;19924;-81
2022/12/04 12:34:42;;;;;;;;;;;6.00;99.90;;;;;;5052796;28;20553;-82
2022/12/04 12:37:24;;;;;;;;;;;6.10;99.90;;;;;;5074902;28;19928;-81
2022/12/04 12:39:56;;;;;;;;;;;6.20;99.90;;;;;;5069148;28;19920;-80
2022/12/04 12:42:24;;;;;;;;;;;6.30;99.90;;;;;;5072885;28;19916;-81
2022/12/04 12:45:19;;;;;;;;;;;6.40;99.90;;;;;;5054825;28;20019;-80
2022/12/04 12:47:48;;;;;;;;;;;6.50;99.90;;;;;;5048330;28;20417;-80
2022/12/04 12:50:34;;;;;;;;;;;6.70;99.90;;;;;;5055245;28;20330;-80
2022/12/04 12:53:09;;;;;;;;;;;7.00;99.90;;;;;;5049064;28;20280;-81
2022/12/04 12:55:38;;;;;;;;;;;7.10;99.90;;;;;;5071238;28;19912;-83
2022/12/04 12:58:08;;;;;;;;;;;7.30;99.90;;;;;;5067330;28;19920;-83
2022/12/04 13:00:43;;;;;;;;;;;7.40;99.90;;;;;;5071791;28;20034;-83
2022/12/04 13:03:12;;;;;;;;;;;7.40;99.90;;;;;;5054493;28;19912;-83
2022/12/04 13:05:40;;;;;;;;;;;7.40;99.90;;;;;;5072054;28;19966;-83
2022/12/04 13:08:26;;;;;;;;;;;7.40;99.90;;;;;;5070884;28;19919;-82
2022/12/04 13:10:58;;;;;;;;;;;7.40;99.90;;;;;;5048086;28;19917;-82
2022/12/04 13:13:26;;;;;;;;;;;7.40;99.90;;;;;;5041459;28;20053;-83
2022/12/04 13:15:56;;;;;;;;;;;7.30;99.90;;;;;;5055994;28;19916;-82
2022/12/04 13:18:24;;;;;;;;;;;7.30;99.90;;;;;;5075394;28;19935;-82
2022/12/04 13:20:53;;;;;;;;;;;7.30;99.90;;;;;;5069476;28;19999;-82
2022/12/04 13:23:21;;;;;;;;;;;7.20;99.90;;;;;;5065147;28;19963;-82
2022/12/04 13:26:05;;;;;;;;;;;7.20;99.90;;;;;;5059800;28;19913;-83
2022/12/04 13:28:35;;;;;;;;;;;7.20;99.90;;;;;;5056746;28;19913;-82
2022/12/04 13:31:03;;;;;;;;;;;7.10;99.90;;;;;;5054999;28;19915;-82
2022/12/04 13:33:49;;;;;;;;;;;7.10;99.90;;;;;;5054921;28;19909;-82
2022/12/04 13:36:14;;;;;;;;;;;7.10;99.90;;;;;;5055724;28;19919;-83
2022/12/04 13:38:58;;;;;;;;;;;7.10;99.90;;;;;;5074674;28;20292;-82
2022/12/04 13:41:24;;;;;;;;;;;7.10;99.90;;;;;;5069218;28;19919;-82
2022/12/04 13:43:51;;;;;;;;;;;7.20;99.90;;;;;;5070424;28;19927;-82
2022/12/04 13:46:30;;;;;;;;;;;7.20;99.90;;;;;;5074343;28;19924;-82
2022/12/04 13:49:12;;;;;;;;;;;7.20;99.90;;;;;;5073802;28;20296;-82
2022/12/04 13:51:39;;;;;;;;;;;7.20;99.90;;;;;;5071263;28;19920;-83
2022/12/04 13:54:10;;;;;;;;;;;7.20;99.90;;;;;;5055308;28;19917;-82
2022/12/04 13:56:37;;;;;;;;;;;7.20;99.90;;;;;;5073365;28;20265;-82
2022/12/04 13:59:04;;;;;;;;;;;7.10;99.90;;;;;;5055578;28;20337;-82
2022/12/04 14:01:32;;;;;;;;;;;7.10;99.90;;;;;;5071868;28;19952;-82
2022/12/04 14:03:58;;;;;;;;;;;7.10;99.90;;;;;;5072629;28;19920;-82
2022/12/04 14:06:45;;;;;;;;;;;7.00;99.90;;;;;;5045553;28;19917;-82
2022/12/04 14:09:20;;;;;;;;;;;7.00;99.90;;;;;;5052622;28;19909;-82
2022/12/04 14:11:49;;;;;;;;;;;7.00;99.90;;;;;;5054745;28;19916;-82
2022/12/04 14:14:27;;;;;;;;;;;6.90;99.90;;;;;;5071599;28;19995;-82
2022/12/04 14:16:53;;;;;;;;;;;6.90;99.90;;;;;;5070636;28;19956;-82
2022/12/04 14:19:31;;;;;;;;;;;6.80;99.90;;;;;;5055950;28;19915;-82
2022/12/04 14:21:57;;;;;;;;;;;6.80;99.90;;;;;;5052986;28;19912;-82
2022/12/04 14:24:26;;;;;;;;;;;6.70;99.90;;;;;;5055692;28;20368;-83
2022/12/04 14:26:51;;;;;;;;;;;6.70;99.90;;;;;;5073946;28;19915;-82
2022/12/04 14:29:17;;;;;;;;;;;6.60;99.90;;;;;;5055529;28;20011;-82
2022/12/04 14:31:43;;;;;;;;;;;6.60;99.90;;;;;;5074158;28;20416;-82
2022/12/04 14:34:22;;;;;;;;;;;6.60;99.90;;;;;;5072540;28;20273;-82
2022/12/04 14:36:49;;;;;;;;;;;6.50;99.90;;;;;;5071838;28;19920;-82
2022/12/04 14:39:21;;;;;;;;;;;6.50;99.90;;;;;;5075618;28;19965;-82
2022/12/04 14:41:46;;;;;;;;;;;6.40;99.90;;;;;;5076509;28;20346;-82
2022/12/04 14:44:27;;;;;;;;;;;6.40;99.90;;;;;;5077423;28;19917;-83
2022/12/04 14:46:54;;;;;;;;;;;6.30;99.90;;;;;;5069753;28;20419;-82
2022/12/04 14:49:26;;;;;;;;;;;6.30;99.90;;;;;;5076072;28;19934;-82
2022/12/04 14:52:02;;;;;;;;;;;6.30;99.90;;;;;;5075540;28;19954;-83